Time;durP1;ratioP1;P1;durP2;ratioP2;P2;SDS_P1;SDS_P2;PMS_P1;PMS_P2;Temp;Humidity;BMP_temperature;BMP_pressure;BME280_temperature;BME280_humidity;BME280_pressure;Samples;Min_cycle;Max_cycle;Signal;HPM_P1;HPM_P2
2021/06/21 00:01:23;;;;;;;8.57;5.10;;;;;;;;;;4413415;32;20188;-71
2021/06/21 00:03:48;;;;;;;8.13;4.87;;;;;;;;;;4428943;32;20294;-71
2021/06/21 00:06:14;;;;;;;9.00;5.12;;;;;;;;;;4426077;32;20149;-72
2021/06/21 00:08:39;;;;;;;9.65;5.45;;;;;;;;;;4409380;32;20169;-72
2021/06/21 00:11:04;;;;;;;10.88;5.93;;;;;;;;;;4423934;32;20526;-72
2021/06/21 00:13:29;;;;;;;8.57;5.32;;;;;;;;;;4410108;32;20487;-72
2021/06/21 00:15:55;;;;;;;11.82;5.65;;;;;;;;;;4412300;32;20142;-72
2021/06/21 00:18:20;;;;;;;8.48;5.18;;;;;;;;;;4419016;32;20337;-72
2021/06/21 00:20:47;;;;;;;6.72;5.70;;;;;;;;;;4427840;32;20165;-72
2021/06/21 00:23:12;;;;;;;8.15;5.47;;;;;;;;;;4425892;32;20216;-72
2021/06/21 00:25:37;;;;;;;11.00;6.20;;;;;;;;;;4424452;32;20199;-71
2021/06/21 00:28:02;;;;;;;9.57;6.40;;;;;;;;;;4409411;32;20225;-73
2021/06/21 00:30:28;;;;;;;8.65;6.03;;;;;;;;;;4421596;32;20232;-71
2021/06/21 00:32:53;;;;;;;11.90;6.13;;;;;;;;;;4398816;32;20173;-72
2021/06/21 00:35:18;;;;;;;14.90;6.93;;;;;;;;;;4403800;32;20344;-72
2021/06/21 00:37:44;;;;;;;11.07;6.90;;;;;;;;;;4415125;32;20154;-72
2021/06/21 00:40:10;;;;;;;10.05;6.00;;;;;;;;;;4426887;32;20176;-72
2021/06/21 00:42:35;;;;;;;12.77;6.72;;;;;;;;;;4419245;32;20180;-72
2021/06/21 00:45:00;;;;;;;12.68;6.85;;;;;;;;;;4425779;32;20198;-72
2021/06/21 00:47:26;;;;;;;11.30;5.90;;;;;;;;;;4426143;32;20949;-72
2021/06/21 00:49:51;;;;;;;10.18;6.20;;;;;;;;;;4424805;32;20279;-73
2021/06/21 00:52:18;;;;;;;14.63;6.63;;;;;;;;;;4423910;32;20268;-72
2021/06/21 00:54:44;;;;;;;11.00;6.20;;;;;;;;;;4413699;32;20306;-72
2021/06/21 00:57:09;;;;;;;11.00;5.97;;;;;;;;;;4418707;32;20157;-72
2021/06/21 00:59:34;;;;;;;11.12;6.03;;;;;;;;;;4425214;32;20201;-72
2021/06/21 01:01:59;;;;;;;9.25;5.80;;;;;;;;;;4418959;32;21001;-72
2021/06/21 01:04:25;;;;;;;12.95;6.47;;;;;;;;;;4401656;32;20288;-72
2021/06/21 01:06:50;;;;;;;9.63;5.55;;;;;;;;;;4411586;32;20261;-72
2021/06/21 01:09:15;;;;;;;12.33;6.17;;;;;;;;;;4410983;32;20232;-71
2021/06/21 01:11:54;;;;;;;11.35;6.62;;;;;;;;;;4414514;32;20256;-71
2021/06/21 01:14:31;;;;;;;10.18;5.93;;;;;;;;;;4422493;32;20232;-72
2021/06/21 01:17:01;;;;;;;11.57;6.68;;;;;;;;;;4405648;32;20185;-72
2021/06/21 01:19:41;;;;;;;10.43;5.70;;;;;;;;;;4409088;32;20174;-72
2021/06/21 01:22:12;;;;;;;9.93;6.03;;;;;;;;;;4409182;32;20145;-71
2021/06/21 01:24:55;;;;;;;12.55;6.32;;;;;;;;;;4409194;32;20178;-72
2021/06/21 01:27:21;;;;;;;10.00;6.03;;;;;;;;;;4417484;32;20165;-72
2021/06/21 01:29:52;;;;;;;13.60;5.70;;;;;;;;;;4408217;32;20181;-71
2021/06/21 01:32:18;;;;;;;10.70;6.40;;;;;;;;;;4423062;32;20228;-73
2021/06/21 01:34:50;;;;;;;12.20;5.97;;;;;;;;;;4408392;32;20595;-71
2021/06/21 01:37:16;;;;;;;12.98;6.70;;;;;;;;;;4422737;32;20584;-72
2021/06/21 01:39:42;;;;;;;15.43;6.75;;;;;;;;;;4424092;32;20205;-72
2021/06/21 01:42:10;;;;;;;12.32;6.57;;;;;;;;;;4422391;32;20184;-72
2021/06/21 01:44:47;;;;;;;10.30;6.35;;;;;;;;;;4408169;32;20705;-71
2021/06/21 01:47:15;;;;;;;10.50;6.90;;;;;;;;;;4422154;32;20146;-71
2021/06/21 01:49:43;;;;;;;12.23;6.65;;;;;;;;;;4422327;32;20186;-72
2021/06/21 01:52:10;;;;;;;12.57;6.85;;;;;;;;;;4425445;32;20153;-72
2021/06/21 01:54:37;;;;;;;13.43;6.53;;;;;;;;;;4425992;32;21091;-73
2021/06/21 01:57:03;;;;;;;11.35;7.00;;;;;;;;;;4427914;32;20149;-72
2021/06/21 01:59:29;;;;;;;11.55;6.55;;;;;;;;;;4425650;32;20168;-70
2021/06/21 02:01:55;;;;;;;12.88;6.60;;;;;;;;;;4412450;32;20173;-72
2021/06/21 02:04:22;;;;;;;12.23;6.68;;;;;;;;;;4418328;32;20150;-72
2021/06/21 02:06:49;;;;;;;14.50;7.50;;;;;;;;;;4407529;32;20142;-71
2021/06/21 02:09:14;;;;;;;13.40;7.35;;;;;;;;;;4408464;32;20149;-71
2021/06/21 02:11:39;;;;;;;13.13;7.40;;;;;;;;;;4407893;32;20642;-72
2021/06/21 02:14:06;;;;;;;12.05;7.32;;;;;;;;;;4406449;32;20142;-73
2021/06/21 02:16:31;;;;;;;12.93;7.90;;;;;;;;;;4407349;32;20308;-73
2021/06/21 02:18:57;;;;;;;13.77;8.25;;;;;;;;;;4406780;32;20146;-73
2021/06/21 02:21:22;;;;;;;12.80;7.60;;;;;;;;;;4407807;32;20146;-73
2021/06/21 02:23:48;;;;;;;15.05;8.63;;;;;;;;;;4419286;32;20215;-73
2021/06/21 02:26:14;;;;;;;13.52;7.95;;;;;;;;;;4422268;32;20142;-72
2021/06/21 02:28:40;;;;;;;13.60;8.18;;;;;;;;;;4423878;32;20198;-73
2021/06/21 02:31:05;;;;;;;16.67;7.60;;;;;;;;;;4424749;32;20153;-73
2021/06/21 02:33:31;;;;;;;18.15;9.07;;;;;;;;;;4424005;32;20605;-73
2021/06/21 02:35:56;;;;;;;12.23;8.50;;;;;;;;;;4422379;32;20142;-73
2021/06/21 02:38:21;;;;;;;17.33;9.00;;;;;;;;;;4424178;32;20201;-71
2021/06/21 02:40:47;;;;;;;17.85;8.98;;;;;;;;;;4423068;32;20339;-72
2021/06/21 02:43:12;;;;;;;15.40;8.98;;;;;;;;;;4407298;32;20177;-72
2021/06/21 02:45:37;;;;;;;15.38;7.68;;;;;;;;;;4422845;32;20204;-72
2021/06/21 02:48:04;;;;;;;14.18;8.00;;;;;;;;;;4421301;32;20194;-71
2021/06/21 02:50:29;;;;;;;13.38;7.80;;;;;;;;;;4421874;32;20145;-72
2021/06/21 02:53:06;;;;;;;13.23;8.23;;;;;;;;;;4407889;32;20173;-72
2021/06/21 02:55:33;;;;;;;16.10;8.57;;;;;;;;;;4423009;32;20146;-72
2021/06/21 02:58:11;;;;;;;14.75;7.60;;;;;;;;;;4421515;32;20201;-72
2021/06/21 03:00:38;;;;;;;11.88;7.60;;;;;;;;;;4422305;32;20169;-73
2021/06/21 03:03:03;;;;;;;12.23;7.97;;;;;;;;;;4421937;32;20229;-73
2021/06/21 03:05:29;;;;;;;15.70;8.10;;;;;;;;;;4421684;32;20871;-73
2021/06/21 03:07:55;;;;;;;14.20;8.13;;;;;;;;;;4422603;32;20301;-73
2021/06/21 03:10:21;;;;;;;15.43;8.35;;;;;;;;;;4422574;32;20149;-74
2021/06/21 03:12:46;;;;;;;12.25;7.72;;;;;;;;;;4422321;32;20146;-74
2021/06/21 03:15:13;;;;;;;10.40;7.50;;;;;;;;;;4399722;32;20204;-74
2021/06/21 03:17:39;;;;;;;13.05;7.10;;;;;;;;;;4419645;32;20154;-74
2021/06/21 03:20:04;;;;;;;13.52;7.65;;;;;;;;;;4422327;32;20172;-73
2021/06/21 03:22:29;;;;;;;10.18;7.20;;;;;;;;;;4406652;32;20712;-73
2021/06/21 03:24:55;;;;;;;17.20;8.30;;;;;;;;;;4422454;32;20145;-73
2021/06/21 03:27:28;;;;;;;13.25;8.50;;;;;;;;;;4424938;32;20171;-74
2021/06/21 03:29:53;;;;;;;13.45;7.93;;;;;;;;;;4406802;32;20181;-74
2021/06/21 03:32:26;;;;;;;14.57;8.32;;;;;;;;;;4422239;32;20593;-73
2021/06/21 03:34:52;;;;;;;13.77;8.68;;;;;;;;;;4397071;32;20244;-74
2021/06/21 03:37:17;;;;;;;16.08;7.80;;;;;;;;;;4419583;32;20558;-73
2021/06/21 03:39:43;;;;;;;14.20;8.18;;;;;;;;;;4429260;32;20176;-74
2021/06/21 03:42:08;;;;;;;11.10;7.97;;;;;;;;;;4422048;32;20190;-74
2021/06/21 03:44:33;;;;;;;16.35;8.32;;;;;;;;;;4413075;32;20308;-74
2021/06/21 03:46:58;;;;;;;15.02;7.43;;;;;;;;;;4424889;32;20214;-74
2021/06/21 03:49:23;;;;;;;11.88;7.97;;;;;;;;;;4413695;32;20253;-73
2021/06/21 03:51:48;;;;;;;10.88;8.05;;;;;;;;;;4409335;32;20161;-73
2021/06/21 03:54:14;;;;;;;11.23;7.43;;;;;;;;;;4400476;32;20189;-73
2021/06/21 03:56:39;;;;;;;13.82;8.15;;;;;;;;;;4426284;32;20208;-74
2021/06/21 03:59:04;;;;;;;14.02;8.40;;;;;;;;;;4413266;32;20284;-74
2021/06/21 04:01:29;;;;;;;12.37;8.32;;;;;;;;;;4426419;32;20166;-74
2021/06/21 04:03:59;;;;;;;12.35;7.80;;;;;;;;;;4427085;32;20245;-73
2021/06/21 04:06:24;;;;;;;15.50;9.07;;;;;;;;;;4410796;32;20268;-73
2021/06/21 04:08:49;;;;;;;11.73;7.72;;;;;;;;;;4423292;32;20172;-73
2021/06/21 04:11:15;;;;;;;10.98;7.43;;;;;;;;;;4425024;32;20214;-73
2021/06/21 04:13:40;;;;;;;12.07;7.78;;;;;;;;;;4423531;32;20146;-73
2021/06/21 04:16:05;;;;;;;14.33;8.07;;;;;;;;;;4423953;32;20208;-72
2021/06/21 04:18:30;;;;;;;11.73;7.80;;;;;;;;;;4423800;32;20249;-73
2021/06/21 04:20:56;;;;;;;14.25;8.02;;;;;;;;;;4423768;32;20142;-72
2021/06/21 04:23:21;;;;;;;8.75;7.28;;;;;;;;;;4423679;32;20179;-73
2021/06/21 04:25:46;;;;;;;14.73;7.90;;;;;;;;;;4425998;32;20171;-73
2021/06/21 04:28:11;;;;;;;13.30;7.80;;;;;;;;;;4425451;32;20154;-73
2021/06/21 04:30:37;;;;;;;12.80;7.95;;;;;;;;;;4424932;32;20280;-73
2021/06/21 04:33:02;;;;;;;12.93;8.10;;;;;;;;;;4410861;32;20184;-73
2021/06/21 04:35:27;;;;;;;13.85;7.43;;;;;;;;;;4422547;32;21061;-72
2021/06/21 04:37:53;;;;;;;12.60;7.87;;;;;;;;;;4424377;32;20478;-73
2021/06/21 04:40:23;;;;;;;11.32;6.87;;;;;;;;;;4424332;32;20149;-73
2021/06/21 04:42:48;;;;;;;15.43;8.30;;;;;;;;;;4423122;32;20623;-72
2021/06/21 04:45:14;;;;;;;13.65;7.28;;;;;;;;;;4423955;32;20146;-72
2021/06/21 04:47:39;;;;;;;10.70;6.82;;;;;;;;;;4423228;32;20145;-72
2021/06/21 04:50:08;;;;;;;10.98;6.93;;;;;;;;;;4421870;32;20225;-72
2021/06/21 04:52:34;;;;;;;17.08;7.72;;;;;;;;;;4423500;32;20590;-72
2021/06/21 04:55:03;;;;;;;10.75;7.55;;;;;;;;;;4423141;32;20149;-73
2021/06/21 04:57:28;;;;;;;13.88;7.25;;;;;;;;;;4422155;32;20620;-73
2021/06/21 04:59:54;;;;;;;12.63;7.18;;;;;;;;;;4422556;32;20209;-73
2021/06/21 05:02:19;;;;;;;12.02;7.10;;;;;;;;;;4419431;32;20176;-73
2021/06/21 05:04:44;;;;;;;10.23;7.07;;;;;;;;;;4422756;32;20141;-73
2021/06/21 05:07:09;;;;;;;10.10;6.68;;;;;;;;;;4416229;32;20237;-72
2021/06/21 05:09:35;;;;;;;13.97;7.30;;;;;;;;;;4407666;32;20188;-72
2021/06/21 05:12:01;;;;;;;10.63;7.12;;;;;;;;;;4421189;32;20336;-73
2021/06/21 05:14:26;;;;;;;10.57;7.07;;;;;;;;;;4421203;32;20177;-74
2021/06/21 05:16:51;;;;;;;12.73;8.05;;;;;;;;;;4409555;32;20172;-73
2021/06/21 05:19:16;;;;;;;9.65;6.87;;;;;;;;;;4423920;32;20175;-73
2021/06/21 05:21:42;;;;;;;11.60;7.32;;;;;;;;;;4426414;32;20260;-73
2021/06/21 05:24:07;;;;;;;11.95;7.43;;;;;;;;;;4426527;32;20177;-74
2021/06/21 05:26:32;;;;;;;12.30;7.12;;;;;;;;;;4425439;32;20169;-73
2021/06/21 05:28:57;;;;;;;12.70;7.90;;;;;;;;;;4404580;32;20363;-73
2021/06/21 05:31:22;;;;;;;9.45;7.07;;;;;;;;;;4406619;32;20238;-73
2021/06/21 05:33:47;;;;;;;11.20;7.50;;;;;;;;;;4407288;32;20346;-73
2021/06/21 05:36:13;;;;;;;10.07;6.90;;;;;;;;;;4394601;32;20760;-73
2021/06/21 05:38:38;;;;;;;10.57;7.25;;;;;;;;;;4408755;32;20444;-73
2021/06/21 05:41:03;;;;;;;15.95;8.52;;;;;;;;;;4409172;32;20180;-74
2021/06/21 05:43:28;;;;;;;10.50;7.32;;;;;;;;;;4409349;32;20257;-73
2021/06/21 05:45:54;;;;;;;11.27;6.93;;;;;;;;;;4409632;32;20141;-73
2021/06/21 05:48:19;;;;;;;15.10;7.43;;;;;;;;;;4410322;32;20146;-74
2021/06/21 05:50:45;;;;;;;13.30;8.07;;;;;;;;;;4412951;32;20154;-74
2021/06/21 05:53:10;;;;;;;13.07;8.15;;;;;;;;;;4418953;32;20180;-73
2021/06/21 05:55:35;;;;;;;10.93;7.32;;;;;;;;;;4422997;32;20145;-74
2021/06/21 05:58:01;;;;;;;12.80;7.22;;;;;;;;;;4413276;32;20185;-73
2021/06/21 06:00:27;;;;;;;11.52;7.75;;;;;;;;;;4411164;32;20196;-74
2021/06/21 06:02:52;;;;;;;12.30;7.32;;;;;;;;;;4422145;32;20154;-73
2021/06/21 06:05:18;;;;;;;12.30;7.70;;;;;;;;;;4420333;32;20176;-73
2021/06/21 06:07:43;;;;;;;9.43;6.80;;;;;;;;;;4415170;32;20539;-74
2021/06/21 06:10:09;;;;;;;10.88;7.03;;;;;;;;;;4419079;32;20157;-73
2021/06/21 06:12:34;;;;;;;9.32;6.12;;;;;;;;;;4419417;32;20142;-73
2021/06/21 06:14:59;;;;;;;12.57;6.97;;;;;;;;;;4402040;32;20199;-73
2021/06/21 06:17:25;;;;;;;8.83;5.53;;;;;;;;;;4420191;32;20584;-73
2021/06/21 06:19:50;;;;;;;12.18;6.90;;;;;;;;;;4392131;32;20273;-73
2021/06/21 06:22:15;;;;;;;10.18;5.90;;;;;;;;;;4393316;32;20620;-73
2021/06/21 06:24:40;;;;;;;8.93;5.63;;;;;;;;;;4419512;32;20142;-73
2021/06/21 06:27:06;;;;;;;9.98;5.95;;;;;;;;;;4421165;32;20237;-73
2021/06/21 06:29:32;;;;;;;8.45;5.45;;;;;;;;;;4419812;32;20146;-72
2021/06/21 06:31:57;;;;;;;8.20;4.90;;;;;;;;;;4420998;32;20178;-72
2021/06/21 06:34:23;;;;;;;9.27;6.75;;;;;;;;;;4417721;32;20165;-73
2021/06/21 06:36:48;;;;;;;12.05;5.90;;;;;;;;;;4418842;32;20218;-71
2021/06/21 06:39:13;;;;;;;10.18;6.62;;;;;;;;;;4418193;32;20209;-72
2021/06/21 06:41:39;;;;;;;8.07;5.85;;;;;;;;;;4419847;32;20137;-72
2021/06/21 06:44:04;;;;;;;9.43;5.93;;;;;;;;;;4421432;32;20454;-72
2021/06/21 06:46:29;;;;;;;10.55;6.25;;;;;;;;;;4420993;32;20481;-72
2021/06/21 06:48:54;;;;;;;11.32;6.07;;;;;;;;;;4405680;32;20244;-72
2021/06/21 06:51:20;;;;;;;8.45;6.18;;;;;;;;;;4420174;32;21195;-73
2021/06/21 06:54:01;;;;;;;9.57;6.40;;;;;;;;;;4421066;32;20404;-72
2021/06/21 06:59:10;;;;;;;11.25;6.62;;;;;;;;;;4415202;32;20199;-72
2021/06/21 07:01:35;;;;;;;10.00;6.40;;;;;;;;;;4420690;32;20173;-73
2021/06/21 07:04:01;;;;;;;12.55;7.20;;;;;;;;;;4420004;32;20161;-73
2021/06/21 07:06:26;;;;;;;13.93;7.65;;;;;;;;;;4415967;32;20191;-74
2021/06/21 07:08:52;;;;;;;9.37;6.20;;;;;;;;;;4423094;32;20156;-72
2021/06/21 07:11:17;;;;;;;7.18;5.30;;;;;;;;;;4423371;32;20288;-73
2021/06/21 07:13:42;;;;;;;9.85;5.50;;;;;;;;;;4419720;32;20179;-72
2021/06/21 07:16:08;;;;;;;7.10;4.82;;;;;;;;;;4419199;32;20537;-73
2021/06/21 07:18:33;;;;;;;6.40;4.57;;;;;;;;;;4420145;32;20574;-73
2021/06/21 07:20:58;;;;;;;8.27;4.70;;;;;;;;;;4420517;32;20157;-73
2021/06/21 07:23:23;;;;;;;5.43;3.77;;;;;;;;;;4420124;32;20336;-74
2021/06/21 07:25:48;;;;;;;5.40;3.95;;;;;;;;;;4421897;32;20321;-74
2021/06/21 07:28:16;;;;;;;4.77;3.90;;;;;;;;;;4422235;32;20654;-73
2021/06/21 07:30:42;;;;;;;5.37;3.92;;;;;;;;;;4421062;32;20244;-73
2021/06/21 07:33:07;;;;;;;6.37;4.10;;;;;;;;;;4416334;32;20613;-74
2021/06/21 07:35:32;;;;;;;6.15;4.28;;;;;;;;;;4414192;32;20279;-73
2021/06/21 07:37:58;;;;;;;4.35;3.20;;;;;;;;;;4419451;32;20197;-72
2021/06/21 07:40:23;;;;;;;7.62;4.40;;;;;;;;;;4418447;32;20195;-73
2021/06/21 07:42:48;;;;;;;4.85;3.90;;;;;;;;;;4421526;32;20141;-74
2021/06/21 07:45:13;;;;;;;4.63;3.37;;;;;;;;;;4421556;32;20196;-73
2021/06/21 07:47:38;;;;;;;5.05;3.28;;;;;;;;;;4420092;32;20249;-74
2021/06/21 07:50:04;;;;;;;4.10;3.37;;;;;;;;;;4422406;32;20153;-73
2021/06/21 07:52:29;;;;;;;4.30;3.12;;;;;;;;;;4412904;32;20250;-73
2021/06/21 07:54:59;;;;;;;7.37;3.53;;;;;;;;;;4406859;32;20211;-72
2021/06/21 07:57:24;;;;;;;4.60;2.67;;;;;;;;;;4418282;32;20184;-73
2021/06/21 07:59:49;;;;;;;4.63;2.83;;;;;;;;;;4420916;32;20491;-73
2021/06/21 08:02:14;;;;;;;3.47;2.72;;;;;;;;;;4423363;32;20289;-73
2021/06/21 08:04:39;;;;;;;5.05;3.10;;;;;;;;;;4421508;32;20946;-73
2021/06/21 08:07:05;;;;;;;4.70;3.00;;;;;;;;;;4421538;32;20256;-73
2021/06/21 08:09:30;;;;;;;4.50;2.78;;;;;;;;;;4419370;32;20249;-73
2021/06/21 08:11:55;;;;;;;5.72;3.20;;;;;;;;;;4401259;32;20224;-73
2021/06/21 08:14:20;;;;;;;4.97;3.22;;;;;;;;;;4411476;32;20185;-73
2021/06/21 08:16:45;;;;;;;5.03;3.30;;;;;;;;;;4418623;32;20198;-73
2021/06/21 08:19:11;;;;;;;8.00;3.80;;;;;;;;;;4422969;32;20578;-73
2021/06/21 08:21:36;;;;;;;5.72;3.30;;;;;;;;;;4409222;32;20178;-73
2021/06/21 08:24:01;;;;;;;4.87;3.00;;;;;;;;;;4412681;32;20169;-72
2021/06/21 08:26:26;;;;;;;7.25;3.80;;;;;;;;;;4408856;32;20149;-72
2021/06/21 08:28:52;;;;;;;5.30;3.35;;;;;;;;;;4395790;32;20544;-72
2021/06/21 08:31:17;;;;;;;6.28;4.40;;;;;;;;;;4420254;32;20253;-72
2021/06/21 08:33:42;;;;;;;9.90;5.70;;;;;;;;;;4417557;32;20162;-72
2021/06/21 08:36:08;;;;;;;9.05;5.10;;;;;;;;;;4423979;32;20173;-72
2021/06/21 08:38:35;;;;;;;8.35;5.85;;;;;;;;;;4419890;32;20290;-73
2021/06/21 08:41:02;;;;;;;5.93;4.72;;;;;;;;;;4409660;32;20157;-72
2021/06/21 08:43:27;;;;;;;9.07;5.28;;;;;;;;;;4402416;32;20295;-72
2021/06/21 08:45:52;;;;;;;6.85;4.43;;;;;;;;;;4402639;32;20634;-72
2021/06/21 08:48:18;;;;;;;7.25;4.70;;;;;;;;;;4407460;32;20391;-72
2021/06/21 08:50:43;;;;;;;7.35;5.70;;;;;;;;;;4417760;32;20649;-72
2021/06/21 08:53:10;;;;;;;9.45;5.72;;;;;;;;;;4425136;32;20275;-72
2021/06/21 08:55:35;;;;;;;7.90;4.70;;;;;;;;;;4421413;32;20952;-73
2021/06/21 08:58:02;;;;;;;8.20;5.00;;;;;;;;;;4436309;32;20138;-72
2021/06/21 09:00:28;;;;;;;7.22;4.80;;;;;;;;;;4435008;32;20227;-72
2021/06/21 09:02:53;;;;;;;6.62;5.43;;;;;;;;;;4435975;32;20145;-73
2021/06/21 09:05:18;;;;;;;5.45;4.75;;;;;;;;;;4420064;32;20283;-71
2021/06/21 09:07:47;;;;;;;7.45;4.93;;;;;;;;;;4435990;32;20191;-72
2021/06/21 09:10:26;;;;;;;6.70;4.37;;;;;;;;;;4436206;32;20650;-73
2021/06/21 09:13:10;;;;;;;8.38;4.60;;;;;;;;;;4434703;32;20157;-73
2021/06/21 09:15:36;;;;;;;6.03;4.32;;;;;;;;;;4420048;32;20996;-72
2021/06/21 09:18:33;;;;;;;6.47;4.10;;;;;;;;;;4436097;32;20192;-73
2021/06/21 09:21:17;;;;;;;4.28;3.40;;;;;;;;;;4407764;32;20205;-72
2021/06/21 09:23:42;;;;;;;7.05;4.00;;;;;;;;;;4434393;32;20172;-73
2021/06/21 09:26:15;;;;;;;5.43;4.23;;;;;;;;;;4435782;32;20184;-73
2021/06/21 09:28:40;;;;;;;5.97;4.30;;;;;;;;;;4433432;32;20304;-72
2021/06/21 09:31:05;;;;;;;4.35;3.62;;;;;;;;;;4418895;32;20513;-73
2021/06/21 09:33:30;;;;;;;6.90;3.37;;;;;;;;;;4433672;32;20176;-73
2021/06/21 09:35:56;;;;;;;6.05;3.50;;;;;;;;;;4434483;32;20150;-72
2021/06/21 09:38:21;;;;;;;6.53;3.35;;;;;;;;;;4434134;32;20245;-73
2021/06/21 09:40:49;;;;;;;7.72;3.78;;;;;;;;;;4434994;32;20630;-71
2021/06/21 09:43:19;;;;;;;3.97;3.40;;;;;;;;;;4435219;32;20184;-72
2021/06/21 09:46:02;;;;;;;5.25;3.30;;;;;;;;;;4434644;32;20161;-72
2021/06/21 09:48:31;;;;;;;5.03;3.28;;;;;;;;;;4434487;32;20171;-71
2021/06/21 09:50:56;;;;;;;5.45;3.70;;;;;;;;;;4425880;32;20154;-72
2021/06/21 09:53:22;;;;;;;7.60;3.62;;;;;;;;;;4422246;32;20176;-70
2021/06/21 09:55:47;;;;;;;5.45;3.65;;;;;;;;;;4420399;32;20578;-71
2021/06/21 09:58:12;;;;;;;6.18;3.67;;;;;;;;;;4409837;32;20168;-71
2021/06/21 10:00:39;;;;;;;4.20;3.17;;;;;;;;;;4424376;32;20261;-71
2021/06/21 10:03:15;;;;;;;5.35;3.37;;;;;;;;;;4420853;32;20165;-71
2021/06/21 10:05:43;;;;;;;5.97;3.65;;;;;;;;;;4428677;32;20187;-71
2021/06/21 10:08:09;;;;;;;7.05;3.00;;;;;;;;;;4416991;32;20756;-71
2021/06/21 10:10:35;;;;;;;7.18;3.70;;;;;;;;;;4433115;32;20157;-70
2021/06/21 10:13:01;;;;;;;4.97;3.83;;;;;;;;;;4432626;32;20201;-70
2021/06/21 10:15:26;;;;;;;8.13;4.10;;;;;;;;;;4435425;32;20154;-70
2021/06/21 10:17:51;;;;;;;5.45;3.80;;;;;;;;;;4435733;32;20530;-71
2021/06/21 10:20:16;;;;;;;5.32;3.50;;;;;;;;;;4419505;32;20182;-71
2021/06/21 10:22:42;;;;;;;7.72;3.80;;;;;;;;;;4434340;32;20534;-71
2021/06/21 10:25:08;;;;;;;5.00;3.40;;;;;;;;;;4435050;32;20210;-72
2021/06/21 10:27:37;;;;;;;7.03;3.72;;;;;;;;;;4429465;32;20187;-71
2021/06/21 10:30:02;;;;;;;5.37;3.85;;;;;;;;;;4409560;32;20208;-71
2021/06/21 10:32:28;;;;;;;5.95;3.40;;;;;;;;;;4404331;32;20802;-71
2021/06/21 10:34:54;;;;;;;6.57;3.60;;;;;;;;;;4423093;32;20169;-72
2021/06/21 10:37:21;;;;;;;6.93;4.03;;;;;;;;;;4424732;32;20729;-72
2021/06/21 10:39:48;;;;;;;5.40;3.95;;;;;;;;;;4418044;32;20153;-72
2021/06/21 10:42:15;;;;;;;7.07;3.42;;;;;;;;;;4423688;32;20229;-72
2021/06/21 10:44:50;;;;;;;5.95;3.55;;;;;;;;;;4410481;32;20157;-71
2021/06/21 10:47:25;;;;;;;8.95;3.70;;;;;;;;;;4408646;32;20156;-72
2021/06/21 10:49:55;;;;;;;5.55;3.40;;;;;;;;;;4409041;32;20547;-72
2021/06/21 10:52:30;;;;;;;6.97;3.33;;;;;;;;;;4393745;32;20561;-70
2021/06/21 10:55:14;;;;;;;6.85;2.95;;;;;;;;;;4409230;32;20175;-72
2021/06/21 10:57:39;;;;;;;5.62;2.95;;;;;;;;;;4408979;32;20142;-72
2021/06/21 11:00:12;;;;;;;5.10;3.30;;;;;;;;;;4408404;32;20583;-72
2021/06/21 11:02:38;;;;;;;4.37;2.90;;;;;;;;;;4420585;32;20769;-71
2021/06/21 11:05:03;;;;;;;3.12;2.80;;;;;;;;;;4408484;32;20192;-71
2021/06/21 11:07:28;;;;;;;5.12;3.03;;;;;;;;;;4422714;32;20214;-70
2021/06/21 11:09:55;;;;;;;5.18;2.65;;;;;;;;;;4425214;32;20154;-71
2021/06/21 11:12:27;;;;;;;3.58;2.30;;;;;;;;;;4427316;32;20169;-72
2021/06/21 11:15:18;;;;;;;3.95;2.30;;;;;;;;;;4425858;32;21069;-71
2021/06/21 11:17:53;;;;;;;4.65;2.40;;;;;;;;;;4420809;32;20517;-72
2021/06/21 11:20:34;;;;;;;4.65;3.20;;;;;;;;;;4422859;32;20200;-72
2021/06/21 11:23:00;;;;;;;5.20;2.65;;;;;;;;;;4416602;32;20188;-73
2021/06/21 11:25:27;;;;;;;5.30;2.80;;;;;;;;;;4421480;32;20149;-73
2021/06/21 11:27:52;;;;;;;3.78;2.83;;;;;;;;;;4427411;32;20180;-73
2021/06/21 11:30:22;;;;;;;6.28;3.40;;;;;;;;;;4425856;32;20471;-73
2021/06/21 11:32:53;;;;;;;4.37;2.80;;;;;;;;;;4423916;32;20244;-73
2021/06/21 11:35:38;;;;;;;6.53;3.05;;;;;;;;;;4411601;32;20232;-73
2021/06/21 11:38:22;;;;;;;7.15;2.80;;;;;;;;;;4408781;32;20641;-73
2021/06/21 11:40:48;;;;;;;9.52;3.05;;;;;;;;;;4423989;32;20245;-73
2021/06/21 11:43:14;;;;;;;3.87;2.60;;;;;;;;;;4423948;32;20173;-73
2021/06/21 11:45:43;;;;;;;4.35;2.40;;;;;;;;;;4423548;32;20141;-73
2021/06/21 11:48:09;;;;;;;4.15;2.67;;;;;;;;;;4422773;32;20145;-73
2021/06/21 11:50:35;;;;;;;4.05;2.00;;;;;;;;;;4415696;32;20169;-73
2021/06/21 11:53:00;;;;;;;3.60;2.08;;;;;;;;;;4423722;32;20540;-73
2021/06/21 11:55:27;;;;;;;4.85;2.20;;;;;;;;;;4423145;32;20142;-73
2021/06/21 11:57:57;;;;;;;5.28;2.65;;;;;;;;;;4423853;32;20146;-73
2021/06/21 12:00:29;;;;;;;3.05;2.03;;;;;;;;;;4423629;32;20201;-73
2021/06/21 12:03:02;;;;;;;6.12;2.10;;;;;;;;;;4422437;32;20676;-72
2021/06/21 12:05:27;;;;;;;5.60;2.40;;;;;;;;;;4425112;32;20164;-72
2021/06/21 12:07:52;;;;;;;2.72;2.10;;;;;;;;;;4426081;32;20167;-73
2021/06/21 12:10:18;;;;;;;4.45;2.30;;;;;;;;;;4412166;32;20665;-72
2021/06/21 12:12:45;;;;;;;4.35;2.30;;;;;;;;;;4426331;32;20603;-72
2021/06/21 12:15:15;;;;;;;3.87;2.28;;;;;;;;;;4411867;32;20235;-72
2021/06/21 12:17:40;;;;;;;4.05;2.00;;;;;;;;;;4427745;32;20183;-72
2021/06/21 12:20:19;;;;;;;5.90;2.12;;;;;;;;;;4415220;32;20178;-72
2021/06/21 12:22:57;;;;;;;3.20;2.00;;;;;;;;;;4427612;32;20530;-72
2021/06/21 12:25:23;;;;;;;4.90;2.22;;;;;;;;;;4426958;32;20141;-72
2021/06/21 12:27:49;;;;;;;3.40;2.08;;;;;;;;;;4427750;32;20237;-72
2021/06/21 12:30:14;;;;;;;5.97;2.42;;;;;;;;;;4426110;32;20216;-72
2021/06/21 12:32:40;;;;;;;3.75;1.92;;;;;;;;;;4424450;32;20192;-73
2021/06/21 12:35:07;;;;;;;3.75;2.28;;;;;;;;;;4418653;32;20165;-73
2021/06/21 12:37:34;;;;;;;3.15;2.20;;;;;;;;;;4416289;32;20184;-72
2021/06/21 12:40:02;;;;;;;2.47;1.73;;;;;;;;;;4427208;32;20168;-73
2021/06/21 12:42:29;;;;;;;5.32;2.10;;;;;;;;;;4424604;32;20245;-72
2021/06/21 12:44:54;;;;;;;5.00;2.20;;;;;;;;;;4414793;32;20188;-72
2021/06/21 12:47:21;;;;;;;3.95;1.90;;;;;;;;;;4409192;32;20138;-73
2021/06/21 12:49:48;;;;;;;3.05;1.77;;;;;;;;;;4423794;32;20154;-72
2021/06/21 12:52:14;;;;;;;4.40;1.85;;;;;;;;;;4412366;32;20499;-72
2021/06/21 12:54:39;;;;;;;3.35;1.75;;;;;;;;;;4417009;32;20171;-73
2021/06/21 12:57:05;;;;;;;3.37;2.08;;;;;;;;;;4424267;32;20512;-74
2021/06/21 12:59:38;;;;;;;2.90;1.90;;;;;;;;;;4424328;32;20141;-73
2021/06/21 13:02:05;;;;;;;4.85;1.80;;;;;;;;;;4410143;32;20200;-73
2021/06/21 13:04:30;;;;;;;4.53;1.85;;;;;;;;;;4413331;32;20611;-71
2021/06/21 13:07:05;;;;;;;5.28;1.77;;;;;;;;;;4425494;32;20176;-74
2021/06/21 13:09:40;;;;;;;3.15;2.00;;;;;;;;;;4410416;32;20173;-74
2021/06/21 13:12:06;;;;;;;3.20;1.92;;;;;;;;;;4426116;32;20204;-73
2021/06/21 13:14:36;;;;;;;3.58;2.10;;;;;;;;;;4426001;32;20141;-73
2021/06/21 13:17:13;;;;;;;3.10;1.80;;;;;;;;;;4424661;32;20233;-72
2021/06/21 13:19:54;;;;;;;3.50;1.80;;;;;;;;;;4423367;32;20871;-73
2021/06/21 13:22:29;;;;;;;3.97;2.40;;;;;;;;;;4426507;32;20213;-72
2021/06/21 13:24:55;;;;;;;3.35;2.17;;;;;;;;;;4423121;32;20192;-73
2021/06/21 13:27:22;;;;;;;2.87;1.98;;;;;;;;;;4400885;32;20199;-73
2021/06/21 13:29:47;;;;;;;4.18;2.00;;;;;;;;;;4411524;32;20551;-74
2021/06/21 13:32:30;;;;;;;3.10;2.10;;;;;;;;;;4402219;32;20192;-74
2021/06/21 13:34:56;;;;;;;3.60;1.80;;;;;;;;;;4426137;32;20574;-73
2021/06/21 13:37:24;;;;;;;3.30;1.80;;;;;;;;;;4423750;32;20748;-73
2021/06/21 13:39:57;;;;;;;4.53;1.80;;;;;;;;;;4423879;32;20146;-73
2021/06/21 13:42:34;;;;;;;2.47;1.90;;;;;;;;;;4425763;32;20633;-73
2021/06/21 13:45:01;;;;;;;4.43;2.30;;;;;;;;;;4426538;32;21045;-73
2021/06/21 13:47:43;;;;;;;3.45;1.65;;;;;;;;;;4424741;32;20164;-74
2021/06/21 13:50:11;;;;;;;3.03;1.83;;;;;;;;;;4412782;32;20165;-74
2021/06/21 13:52:46;;;;;;;3.45;1.95;;;;;;;;;;4426604;32;20149;-75
2021/06/21 13:55:16;;;;;;;2.62;2.00;;;;;;;;;;4426634;32;20133;-73
2021/06/21 13:57:42;;;;;;;4.37;1.65;;;;;;;;;;4426413;32;20179;-73
2021/06/21 14:00:25;;;;;;;6.25;1.90;;;;;;;;;;4424414;32;20213;-73
2021/06/21 14:02:51;;;;;;;4.75;1.77;;;;;;;;;;4423370;32;20206;-73
2021/06/21 14:05:16;;;;;;;4.53;2.10;;;;;;;;;;4424388;32;20169;-72
2021/06/21 14:07:41;;;;;;;5.62;1.92;;;;;;;;;;4427081;32;20133;-74
2021/06/21 14:10:08;;;;;;;4.78;1.90;;;;;;;;;;4428478;32;20320;-73
2021/06/21 14:12:33;;;;;;;4.03;2.30;;;;;;;;;;4410221;32;20177;-74
2021/06/21 14:14:59;;;;;;;9.32;2.67;;;;;;;;;;4424481;32;20517;-74
2021/06/21 14:17:25;;;;;;;5.67;2.60;;;;;;;;;;4417888;32;20275;-74
2021/06/21 14:19:50;;;;;;;5.72;2.03;;;;;;;;;;4414264;32;20286;-74
2021/06/21 14:22:17;;;;;;;11.77;2.60;;;;;;;;;;4424408;32;20462;-73
2021/06/21 14:24:42;;;;;;;4.72;2.60;;;;;;;;;;4421863;32;20145;-73
2021/06/21 14:27:07;;;;;;;4.50;2.08;;;;;;;;;;4422971;32;20145;-74
2021/06/21 14:29:32;;;;;;;5.12;2.20;;;;;;;;;;4424943;32;20217;-73
2021/06/21 14:31:57;;;;;;;3.17;1.90;;;;;;;;;;4423415;32;20184;-73
2021/06/21 14:34:23;;;;;;;4.75;2.25;;;;;;;;;;4424157;32;20172;-73
2021/06/21 14:36:48;;;;;;;4.20;2.10;;;;;;;;;;4423423;32;20655;-73
2021/06/21 14:39:13;;;;;;;4.82;1.90;;;;;;;;;;4417469;32;20166;-73
2021/06/21 14:41:38;;;;;;;3.25;1.90;;;;;;;;;;4408531;32;20195;-73